sensor_id;sensor_type;location;lat;lon;timestamp;P1;durP1;ratioP1;P2;durP2;ratioP2
33491;SDS011;20010;51.488;7.232;2024-02-23T00:01:10;3.60;;;3.40;;
33491;SDS011;20010;51.488;7.232;2024-02-23T00:03:39;3.70;;;3.50;;
33491;SDS011;20010;51.488;7.232;2024-02-23T00:06:06;3.75;;;3.55;;
33491;SDS011;20010;51.488;7.232;2024-02-23T00:08:35;3.45;;;3.35;;
33491;SDS011;20010;51.488;7.232;2024-02-23T00:11:02;4.00;;;3.38;;
33491;SDS011;20010;51.488;7.232;2024-02-23T00:13:31;3.60;;;3.40;;
33491;SDS011;20010;51.488;7.232;2024-02-23T00:15:57;3.33;;;3.20;;
33491;SDS011;20010;51.488;7.232;2024-02-23T00:18:24;3.67;;;3.47;;
33491;SDS011;20010;51.488;7.232;2024-02-23T00:20:51;3.20;;;3.10;;
33491;SDS011;20010;51.488;7.232;2024-02-23T00:23:19;3.45;;;3.30;;
33491;SDS011;20010;51.488;7.232;2024-02-23T00:25:46;3.67;;;3.38;;
33491;SDS011;20010;51.488;7.232;2024-02-23T00:28:13;3.10;;;3.00;;
33491;SDS011;20010;51.488;7.232;2024-02-23T00:30:40;3.60;;;3.40;;
33491;SDS011;20010;51.488;7.232;2024-02-23T00:33:07;3.40;;;3.28;;
33491;SDS011;20010;51.488;7.232;2024-02-23T00:35:33;3.30;;;3.10;;
33491;SDS011;20010;51.488;7.232;2024-02-23T00:38:00;3.30;;;3.10;;
33491;SDS011;20010;51.488;7.232;2024-02-23T00:40:27;3.60;;;3.40;;
33491;SDS011;20010;51.488;7.232;2024-02-23T00:42:54;3.20;;;3.10;;
33491;SDS011;20010;51.488;7.232;2024-02-23T00:45:23;3.40;;;3.20;;
33491;SDS011;20010;51.488;7.232;2024-02-23T00:47:50;3.83;;;3.55;;
33491;SDS011;20010;51.488;7.232;2024-02-23T00:50:16;3.55;;;3.35;;
33491;SDS011;20010;51.488;7.232;2024-02-23T00:52:43;3.65;;;3.45;;
33491;SDS011;20010;51.488;7.232;2024-02-23T00:55:10;3.80;;;3.60;;
33491;SDS011;20010;51.488;7.232;2024-02-23T00:57:37;4.10;;;3.72;;
33491;SDS011;20010;51.488;7.232;2024-02-23T01:00:05;4.28;;;3.90;;
33491;SDS011;20010;51.488;7.232;2024-02-23T01:02:33;3.97;;;3.70;;
33491;SDS011;20010;51.488;7.232;2024-02-23T01:04:59;3.90;;;3.53;;
33491;SDS011;20010;51.488;7.232;2024-02-23T01:07:27;3.70;;;3.60;;
33491;SDS011;20010;51.488;7.232;2024-02-23T01:09:54;3.92;;;3.70;;
33491;SDS011;20010;51.488;7.232;2024-02-23T01:12:21;3.90;;;3.70;;
33491;SDS011;20010;51.488;7.232;2024-02-23T01:14:48;3.95;;;3.65;;
33491;SDS011;20010;51.488;7.232;2024-02-23T01:17:15;4.40;;;4.10;;
33491;SDS011;20010;51.488;7.232;2024-02-23T01:19:43;4.07;;;3.88;;
33491;SDS011;20010;51.488;7.232;2024-02-23T01:22:10;4.10;;;3.90;;
33491;SDS011;20010;51.488;7.232;2024-02-23T01:24:37;4.00;;;3.80;;
33491;SDS011;20010;51.488;7.232;2024-02-23T01:27:04;4.40;;;4.10;;
33491;SDS011;20010;51.488;7.232;2024-02-23T01:29:31;6.78;;;3.90;;
33491;SDS011;20010;51.488;7.232;2024-02-23T01:31:59;4.53;;;4.22;;
33491;SDS011;20010;51.488;7.232;2024-02-23T01:34:27;3.88;;;3.70;;
33491;SDS011;20010;51.488;7.232;2024-02-23T01:36:54;4.03;;;3.60;;
33491;SDS011;20010;51.488;7.232;2024-02-23T01:39:21;4.20;;;3.90;;
33491;SDS011;20010;51.488;7.232;2024-02-23T01:41:48;3.75;;;3.65;;
33491;SDS011;20010;51.488;7.232;2024-02-23T01:44:15;4.10;;;3.90;;
33491;SDS011;20010;51.488;7.232;2024-02-23T01:46:43;4.20;;;3.83;;
33491;SDS011;20010;51.488;7.232;2024-02-23T01:49:11;3.95;;;3.63;;
33491;SDS011;20010;51.488;7.232;2024-02-23T01:51:38;3.97;;;3.70;;
33491;SDS011;20010;51.488;7.232;2024-02-23T01:54:05;3.90;;;3.70;;
33491;SDS011;20010;51.488;7.232;2024-02-23T01:56:32;4.28;;;3.97;;
33491;SDS011;20010;51.488;7.232;2024-02-23T01:59:03;3.97;;;3.78;;
33491;SDS011;20010;51.488;7.232;2024-02-23T02:01:31;5.35;;;3.90;;
33491;SDS011;20010;51.488;7.232;2024-02-23T02:03:58;5.22;;;4.82;;
33491;SDS011;20010;51.488;7.232;2024-02-23T02:06:25;5.72;;;3.90;;
33491;SDS011;20010;51.488;7.232;2024-02-23T02:08:53;4.30;;;4.10;;
33491;SDS011;20010;51.488;7.232;2024-02-23T02:11:20;4.25;;;3.95;;
33491;SDS011;20010;51.488;7.232;2024-02-23T02:13:47;4.40;;;4.10;;
33491;SDS011;20010;51.488;7.232;2024-02-23T02:16:14;4.32;;;4.00;;
33491;SDS011;20010;51.488;7.232;2024-02-23T02:18:42;4.60;;;3.75;;
33491;SDS011;20010;51.488;7.232;2024-02-23T02:21:11;3.80;;;3.47;;
33491;SDS011;20010;51.488;7.232;2024-02-23T02:23:37;4.07;;;3.67;;
33491;SDS011;20010;51.488;7.232;2024-02-23T02:26:04;3.95;;;3.75;;
33491;SDS011;20010;51.488;7.232;2024-02-23T02:28:31;4.22;;;3.80;;
33491;SDS011;20010;51.488;7.232;2024-02-23T02:30:58;5.00;;;4.00;;
33491;SDS011;20010;51.488;7.232;2024-02-23T02:33:25;3.70;;;3.50;;
33491;SDS011;20010;51.488;7.232;2024-02-23T02:35:52;3.70;;;3.50;;
33491;SDS011;20010;51.488;7.232;2024-02-23T02:38:19;4.95;;;4.05;;
33491;SDS011;20010;51.488;7.232;2024-02-23T02:40:46;4.60;;;3.50;;
33491;SDS011;20010;51.488;7.232;2024-02-23T02:43:12;4.60;;;3.88;;
33491;SDS011;20010;51.488;7.232;2024-02-23T02:45:39;3.72;;;3.33;;
33491;SDS011;20010;51.488;7.232;2024-02-23T02:48:06;4.25;;;3.92;;
33491;SDS011;20010;51.488;7.232;2024-02-23T02:50:34;4.20;;;3.70;;
33491;SDS011;20010;51.488;7.232;2024-02-23T02:53:00;4.20;;;3.80;;
33491;SDS011;20010;51.488;7.232;2024-02-23T02:55:27;6.03;;;4.05;;
33491;SDS011;20010;51.488;7.232;2024-02-23T02:57:55;4.20;;;3.60;;
33491;SDS011;20010;51.488;7.232;2024-02-23T03:00:22;5.93;;;3.90;;
33491;SDS011;20010;51.488;7.232;2024-02-23T03:02:49;5.55;;;3.90;;
33491;SDS011;20010;51.488;7.232;2024-02-23T03:05:15;8.10;;;3.72;;
33491;SDS011;20010;51.488;7.232;2024-02-23T03:07:42;3.97;;;3.65;;
33491;SDS011;20010;51.488;7.232;2024-02-23T03:10:09;9.27;;;4.10;;
33491;SDS011;20010;51.488;7.232;2024-02-23T03:12:36;8.20;;;4.00;;
33491;SDS011;20010;51.488;7.232;2024-02-23T03:15:04;5.18;;;4.18;;
33491;SDS011;20010;51.488;7.232;2024-02-23T03:17:32;4.15;;;3.85;;
33491;SDS011;20010;51.488;7.232;2024-02-23T03:19:59;4.10;;;3.70;;
33491;SDS011;20010;51.488;7.232;2024-02-23T03:22:26;4.78;;;3.70;;
33491;SDS011;20010;51.488;7.232;2024-02-23T03:24:55;5.22;;;3.80;;
33491;SDS011;20010;51.488;7.232;2024-02-23T03:27:27;3.67;;;3.40;;
33491;SDS011;20010;51.488;7.232;2024-02-23T03:29:54;3.80;;;3.42;;
33491;SDS011;20010;51.488;7.232;2024-02-23T03:32:21;3.75;;;3.45;;
33491;SDS011;20010;51.488;7.232;2024-02-23T03:34:50;4.03;;;3.72;;
33491;SDS011;20010;51.488;7.232;2024-02-23T03:37:18;3.75;;;3.45;;
33491;SDS011;20010;51.488;7.232;2024-02-23T03:39:44;3.65;;;3.30;;
33491;SDS011;20010;51.488;7.232;2024-02-23T03:42:11;4.63;;;3.60;;
33491;SDS011;20010;51.488;7.232;2024-02-23T03:44:38;4.40;;;3.70;;
33491;SDS011;20010;51.488;7.232;2024-02-23T03:47:06;3.97;;;3.53;;
33491;SDS011;20010;51.488;7.232;2024-02-23T03:49:33;4.18;;;3.85;;
33491;SDS011;20010;51.488;7.232;2024-02-23T03:52:04;6.57;;;3.70;;
33491;SDS011;20010;51.488;7.232;2024-02-23T03:54:31;3.78;;;3.50;;
33491;SDS011;20010;51.488;7.232;2024-02-23T03:56:58;4.00;;;3.65;;
33491;SDS011;20010;51.488;7.232;2024-02-23T03:59:25;4.47;;;3.80;;
33491;SDS011;20010;51.488;7.232;2024-02-23T04:01:52;4.45;;;4.15;;
33491;SDS011;20010;51.488;7.232;2024-02-23T04:04:19;4.20;;;3.60;;
33491;SDS011;20010;51.488;7.232;2024-02-23T04:06:46;4.22;;;3.83;;
33491;SDS011;20010;51.488;7.232;2024-02-23T04:09:12;4.00;;;3.60;;
33491;SDS011;20010;51.488;7.232;2024-02-23T04:11:39;7.38;;;3.88;;
33491;SDS011;20010;51.488;7.232;2024-02-23T04:14:06;5.80;;;3.83;;
33491;SDS011;20010;51.488;7.232;2024-02-23T04:16:33;4.85;;;4.40;;
33491;SDS011;20010;51.488;7.232;2024-02-23T04:19:00;4.55;;;4.20;;
33491;SDS011;20010;51.488;7.232;2024-02-23T04:21:28;5.38;;;4.95;;
33491;SDS011;20010;51.488;7.232;2024-02-23T04:23:55;5.55;;;3.90;;
33491;SDS011;20010;51.488;7.232;2024-02-23T04:26:21;4.13;;;3.83;;
33491;SDS011;20010;51.488;7.232;2024-02-23T04:28:49;6.65;;;3.90;;
33491;SDS011;20010;51.488;7.232;2024-02-23T04:31:16;3.95;;;3.70;;
33491;SDS011;20010;51.488;7.232;2024-02-23T04:33:42;5.28;;;4.05;;
33491;SDS011;20010;51.488;7.232;2024-02-23T04:36:11;5.82;;;4.00;;
33491;SDS011;20010;51.488;7.232;2024-02-23T04:38:37;4.15;;;3.75;;
33491;SDS011;20010;51.488;7.232;2024-02-23T04:41:05;7.75;;;4.93;;
33491;SDS011;20010;51.488;7.232;2024-02-23T04:43:32;4.53;;;4.22;;
33491;SDS011;20010;51.488;7.232;2024-02-23T04:45:59;4.05;;;3.75;;
33491;SDS011;20010;51.488;7.232;2024-02-23T04:48:26;4.95;;;3.90;;
33491;SDS011;20010;51.488;7.232;2024-02-23T04:50:53;7.70;;;4.53;;
33491;SDS011;20010;51.488;7.232;2024-02-23T04:53:21;6.38;;;3.90;;
33491;SDS011;20010;51.488;7.232;2024-02-23T04:55:47;6.40;;;4.28;;
33491;SDS011;20010;51.488;7.232;2024-02-23T04:58:14;4.05;;;3.65;;
33491;SDS011;20010;51.488;7.232;2024-02-23T05:00:42;4.32;;;3.97;;
33491;SDS011;20010;51.488;7.232;2024-02-23T05:03:09;4.18;;;3.88;;
33491;SDS011;20010;51.488;7.232;2024-02-23T05:05:39;4.10;;;3.80;;
33491;SDS011;20010;51.488;7.232;2024-02-23T05:08:06;4.93;;;4.10;;
33491;SDS011;20010;51.488;7.232;2024-02-23T05:10:33;4.00;;;3.70;;
33491;SDS011;20010;51.488;7.232;2024-02-23T05:13:00;7.63;;;4.03;;
33491;SDS011;20010;51.488;7.232;2024-02-23T05:15:27;4.13;;;3.70;;
33491;SDS011;20010;51.488;7.232;2024-02-23T05:17:54;5.22;;;3.92;;
33491;SDS011;20010;51.488;7.232;2024-02-23T05:20:21;4.80;;;4.07;;
33491;SDS011;20010;51.488;7.232;2024-02-23T05:22:49;4.07;;;3.67;;
33491;SDS011;20010;51.488;7.232;2024-02-23T05:25:19;9.27;;;4.35;;
33491;SDS011;20010;51.488;7.232;2024-02-23T05:27:46;4.20;;;3.90;;
33491;SDS011;20010;51.488;7.232;2024-02-23T05:30:14;4.90;;;4.25;;
33491;SDS011;20010;51.488;7.232;2024-02-23T05:32:41;4.70;;;4.35;;
33491;SDS011;20010;51.488;7.232;2024-02-23T05:35:09;9.15;;;4.18;;
33491;SDS011;20010;51.488;7.232;2024-02-23T05:37:36;4.60;;;4.13;;
33491;SDS011;20010;51.488;7.232;2024-02-23T05:40:03;4.20;;;3.80;;
33491;SDS011;20010;51.488;7.232;2024-02-23T05:42:37;7.53;;;3.80;;
33491;SDS011;20010;51.488;7.232;2024-02-23T05:45:08;7.97;;;3.67;;
33491;SDS011;20010;51.488;7.232;2024-02-23T05:47:37;5.65;;;3.65;;
33491;SDS011;20010;51.488;7.232;2024-02-23T05:50:12;7.82;;;3.97;;
33491;SDS011;20010;51.488;7.232;2024-02-23T05:52:40;5.28;;;3.80;;
33491;SDS011;20010;51.488;7.232;2024-02-23T05:55:08;6.85;;;4.20;;
33491;SDS011;20010;51.488;7.232;2024-02-23T05:57:35;4.50;;;4.20;;
33491;SDS011;20010;51.488;7.232;2024-02-23T06:00:02;4.25;;;3.85;;
33491;SDS011;20010;51.488;7.232;2024-02-23T06:02:30;6.32;;;4.53;;
33491;SDS011;20010;51.488;7.232;2024-02-23T06:04:58;7.75;;;3.97;;
33491;SDS011;20010;51.488;7.232;2024-02-23T06:07:26;6.32;;;4.47;;
33491;SDS011;20010;51.488;7.232;2024-02-23T06:09:55;4.57;;;4.28;;
33491;SDS011;20010;51.488;7.232;2024-02-23T06:12:23;4.35;;;3.85;;
33491;SDS011;20010;51.488;7.232;2024-02-23T06:14:51;6.15;;;3.78;;
33491;SDS011;20010;51.488;7.232;2024-02-23T06:17:18;6.93;;;3.95;;
33491;SDS011;20010;51.488;7.232;2024-02-23T06:19:45;7.55;;;4.00;;
33491;SDS011;20010;51.488;7.232;2024-02-23T06:22:12;9.88;;;5.05;;
33491;SDS011;20010;51.488;7.232;2024-02-23T06:24:38;10.63;;;3.75;;
33491;SDS011;20010;51.488;7.232;2024-02-23T06:27:09;6.88;;;3.85;;
33491;SDS011;20010;51.488;7.232;2024-02-23T06:29:43;7.93;;;4.63;;
33491;SDS011;20010;51.488;7.232;2024-02-23T06:32:10;6.40;;;4.15;;
33491;SDS011;20010;51.488;7.232;2024-02-23T06:34:37;4.20;;;3.90;;
33491;SDS011;20010;51.488;7.232;2024-02-23T06:37:04;4.82;;;4.32;;
33491;SDS011;20010;51.488;7.232;2024-02-23T06:39:30;7.18;;;5.93;;
33491;SDS011;20010;51.488;7.232;2024-02-23T06:41:57;6.13;;;4.07;;
33491;SDS011;20010;51.488;7.232;2024-02-23T06:44:27;4.50;;;4.07;;
33491;SDS011;20010;51.488;7.232;2024-02-23T06:46:54;5.72;;;3.88;;
33491;SDS011;20010;51.488;7.232;2024-02-23T06:49:21;4.38;;;4.00;;
33491;SDS011;20010;51.488;7.232;2024-02-23T06:51:48;5.53;;;3.97;;
33491;SDS011;20010;51.488;7.232;2024-02-23T06:54:17;8.90;;;4.53;;
33491;SDS011;20010;51.488;7.232;2024-02-23T06:56:44;8.18;;;4.28;;
33491;SDS011;20010;51.488;7.232;2024-02-23T06:59:11;5.65;;;4.50;;
33491;SDS011;20010;51.488;7.232;2024-02-23T07:01:49;4.65;;;4.20;;
33491;SDS011;20010;51.488;7.232;2024-02-23T07:04:17;5.75;;;4.30;;
33491;SDS011;20010;51.488;7.232;2024-02-23T07:06:46;6.85;;;4.53;;
33491;SDS011;20010;51.488;7.232;2024-02-23T07:09:13;5.88;;;4.25;;
33491;SDS011;20010;51.488;7.232;2024-02-23T07:11:40;5.30;;;4.10;;
33491;SDS011;20010;51.488;7.232;2024-02-23T07:14:10;6.18;;;3.90;;
33491;SDS011;20010;51.488;7.232;2024-02-23T07:16:39;4.88;;;4.28;;
33491;SDS011;20010;51.488;7.232;2024-02-23T07:19:07;6.60;;;5.22;;
33491;SDS011;20010;51.488;7.232;2024-02-23T07:21:35;7.00;;;4.43;;
33491;SDS011;20010;51.488;7.232;2024-02-23T07:24:03;5.70;;;4.53;;
33491;SDS011;20010;51.488;7.232;2024-02-23T07:26:32;9.52;;;5.07;;
33491;SDS011;20010;51.488;7.232;2024-02-23T07:28:59;10.90;;;5.90;;
33491;SDS011;20010;51.488;7.232;2024-02-23T07:31:26;4.80;;;4.40;;
33491;SDS011;20010;51.488;7.232;2024-02-23T07:33:52;4.30;;;4.00;;
33491;SDS011;20010;51.488;7.232;2024-02-23T07:36:20;7.22;;;4.63;;
33491;SDS011;20010;51.488;7.232;2024-02-23T07:38:47;12.55;;;4.40;;
33491;SDS011;20010;51.488;7.232;2024-02-23T07:41:14;4.28;;;3.88;;
33491;SDS011;20010;51.488;7.232;2024-02-23T07:43:41;7.35;;;4.53;;
33491;SDS011;20010;51.488;7.232;2024-02-23T07:46:09;5.47;;;4.50;;
33491;SDS011;20010;51.488;7.232;2024-02-23T07:48:36;6.50;;;4.97;;
33491;SDS011;20010;51.488;7.232;2024-02-23T07:51:07;4.20;;;3.90;;
33491;SDS011;20010;51.488;7.232;2024-02-23T07:56:01;6.18;;;4.22;;
33491;SDS011;20010;51.488;7.232;2024-02-23T07:58:29;4.50;;;4.10;;
33491;SDS011;20010;51.488;7.232;2024-02-23T08:00:56;5.03;;;4.05;;
33491;SDS011;20010;51.488;7.232;2024-02-23T08:03:23;6.15;;;4.57;;
33491;SDS011;20010;51.488;7.232;2024-02-23T08:05:49;4.65;;;4.30;;
33491;SDS011;20010;51.488;7.232;2024-02-23T08:08:16;5.50;;;4.38;;
33491;SDS011;20010;51.488;7.232;2024-02-23T08:10:44;5.53;;;5.03;;
33491;SDS011;20010;51.488;7.232;2024-02-23T08:13:10;6.93;;;4.30;;
33491;SDS011;20010;51.488;7.232;2024-02-23T08:15:37;7.32;;;4.20;;
33491;SDS011;20010;51.488;7.232;2024-02-23T08:18:05;4.22;;;3.88;;
33491;SDS011;20010;51.488;7.232;2024-02-23T08:20:32;5.07;;;4.68;;
33491;SDS011;20010;51.488;7.232;2024-02-23T08:22:59;5.32;;;4.78;;
33491;SDS011;20010;51.488;7.232;2024-02-23T08:25:26;5.30;;;4.68;;
33491;SDS011;20010;51.488;7.232;2024-02-23T08:27:56;4.97;;;4.20;;
33491;SDS011;20010;51.488;7.232;2024-02-23T08:30:23;6.15;;;4.50;;
33491;SDS011;20010;51.488;7.232;2024-02-23T08:32:49;4.82;;;4.53;;
33491;SDS011;20010;51.488;7.232;2024-02-23T08:35:16;4.97;;;4.55;;
33491;SDS011;20010;51.488;7.232;2024-02-23T08:37:48;5.10;;;4.60;;
33491;SDS011;20010;51.488;7.232;2024-02-23T08:40:14;5.00;;;4.28;;
33491;SDS011;20010;51.488;7.232;2024-02-23T08:42:41;4.45;;;3.85;;
33491;SDS011;20010;51.488;7.232;2024-02-23T08:45:08;8.85;;;4.53;;
33491;SDS011;20010;51.488;7.232;2024-02-23T08:47:41;7.60;;;5.05;;
33491;SDS011;20010;51.488;7.232;2024-02-23T08:50:08;5.63;;;5.07;;
33491;SDS011;20010;51.488;7.232;2024-02-23T08:52:35;5.20;;;4.88;;
33491;SDS011;20010;51.488;7.232;2024-02-23T08:55:02;8.10;;;4.50;;
33491;SDS011;20010;51.488;7.232;2024-02-23T08:57:29;5.53;;;4.95;;
33491;SDS011;20010;51.488;7.232;2024-02-23T08:59:56;5.80;;;5.22;;
33491;SDS011;20010;51.488;7.232;2024-02-23T09:02:24;5.43;;;4.93;;
33491;SDS011;20010;51.488;7.232;2024-02-23T09:04:52;4.32;;;4.13;;
33491;SDS011;20010;51.488;7.232;2024-02-23T09:07:19;9.85;;;4.75;;
33491;SDS011;20010;51.488;7.232;2024-02-23T09:09:48;5.88;;;4.78;;
33491;SDS011;20010;51.488;7.232;2024-02-23T09:12:15;6.60;;;4.95;;
33491;SDS011;20010;51.488;7.232;2024-02-23T09:14:43;5.53;;;5.03;;
33491;SDS011;20010;51.488;7.232;2024-02-23T09:17:10;5.32;;;4.93;;
33491;SDS011;20010;51.488;7.232;2024-02-23T09:19:39;5.15;;;4.70;;
33491;SDS011;20010;51.488;7.232;2024-02-23T09:22:06;8.77;;;4.82;;
33491;SDS011;20010;51.488;7.232;2024-02-23T09:24:32;6.38;;;4.72;;
33491;SDS011;20010;51.488;7.232;2024-02-23T09:26:59;10.45;;;5.45;;
33491;SDS011;20010;51.488;7.232;2024-02-23T09:29:26;6.57;;;4.55;;
33491;SDS011;20010;51.488;7.232;2024-02-23T09:31:53;6.35;;;5.15;;
33491;SDS011;20010;51.488;7.232;2024-02-23T09:34:20;5.32;;;4.90;;
33491;SDS011;20010;51.488;7.232;2024-02-23T09:36:52;8.55;;;4.90;;
33491;SDS011;20010;51.488;7.232;2024-02-23T09:39:19;9.85;;;6.28;;
33491;SDS011;20010;51.488;7.232;2024-02-23T09:41:48;5.95;;;5.00;;
33491;SDS011;20010;51.488;7.232;2024-02-23T09:44:16;5.20;;;4.65;;
33491;SDS011;20010;51.488;7.232;2024-02-23T09:46:48;5.20;;;4.65;;
33491;SDS011;20010;51.488;7.232;2024-02-23T09:49:15;7.60;;;4.50;;
33491;SDS011;20010;51.488;7.232;2024-02-23T09:51:45;7.75;;;5.78;;
33491;SDS011;20010;51.488;7.232;2024-02-23T09:54:11;5.53;;;5.03;;
33491;SDS011;20010;51.488;7.232;2024-02-23T09:56:38;5.30;;;4.88;;
33491;SDS011;20010;51.488;7.232;2024-02-23T09:59:07;5.65;;;4.80;;
33491;SDS011;20010;51.488;7.232;2024-02-23T10:01:35;5.82;;;5.07;;
33491;SDS011;20010;51.488;7.232;2024-02-23T10:04:04;6.50;;;5.38;;
33491;SDS011;20010;51.488;7.232;2024-02-23T10:06:33;10.32;;;6.10;;
33491;SDS011;20010;51.488;7.232;2024-02-23T10:08:59;6.80;;;5.22;;
33491;SDS011;20010;51.488;7.232;2024-02-23T10:11:28;6.00;;;5.43;;
33491;SDS011;20010;51.488;7.232;2024-02-23T10:13:55;5.72;;;5.28;;
33491;SDS011;20010;51.488;7.232;2024-02-23T10:16:24;5.72;;;5.25;;
33491;SDS011;20010;51.488;7.232;2024-02-23T10:18:51;6.78;;;5.05;;
33491;SDS011;20010;51.488;7.232;2024-02-23T10:21:18;5.07;;;4.68;;
33491;SDS011;20010;51.488;7.232;2024-02-23T10:23:45;5.70;;;5.20;;
33491;SDS011;20010;51.488;7.232;2024-02-23T10:26:13;5.50;;;5.10;;
33491;SDS011;20010;51.488;7.232;2024-02-23T10:28:40;5.60;;;5.03;;
33491;SDS011;20010;51.488;7.232;2024-02-23T10:31:07;6.47;;;5.18;;
33491;SDS011;20010;51.488;7.232;2024-02-23T10:33:38;5.38;;;4.95;;
33491;SDS011;20010;51.488;7.232;2024-02-23T10:36:08;5.47;;;5.10;;
33491;SDS011;20010;51.488;7.232;2024-02-23T10:38:37;6.03;;;5.00;;
33491;SDS011;20010;51.488;7.232;2024-02-23T10:41:07;5.97;;;5.38;;
33491;SDS011;20010;51.488;7.232;2024-02-23T10:43:40;4.95;;;4.72;;
33491;SDS011;20010;51.488;7.232;2024-02-23T10:46:10;5.85;;;5.10;;
33491;SDS011;20010;51.488;7.232;2024-02-23T10:48:43;5.82;;;4.80;;
33491;SDS011;20010;51.488;7.232;2024-02-23T10:51:14;11.75;;;4.95;;
33491;SDS011;20010;51.488;7.232;2024-02-23T10:53:46;6.80;;;4.68;;
33491;SDS011;20010;51.488;7.232;2024-02-23T10:56:15;6.53;;;4.88;;
33491;SDS011;20010;51.488;7.232;2024-02-23T10:58:42;4.72;;;4.32;;
33491;SDS011;20010;51.488;7.232;2024-02-23T11:01:09;5.15;;;4.65;;
33491;SDS011;20010;51.488;7.232;2024-02-23T11:03:37;5.32;;;4.90;;
33491;SDS011;20010;51.488;7.232;2024-02-23T11:06:07;5.18;;;4.80;;
33491;SDS011;20010;51.488;7.232;2024-02-23T11:08:35;5.07;;;4.63;;
33491;SDS011;20010;51.488;7.232;2024-02-23T11:11:08;4.95;;;4.50;;
33491;SDS011;20010;51.488;7.232;2024-02-23T11:13:38;5.10;;;4.70;;
33491;SDS011;20010;51.488;7.232;2024-02-23T11:16:06;5.25;;;4.78;;
33491;SDS011;20010;51.488;7.232;2024-02-23T11:18:34;5.32;;;4.80;;
33491;SDS011;20010;51.488;7.232;2024-02-23T11:21:02;7.18;;;5.05;;
33491;SDS011;20010;51.488;7.232;2024-02-23T11:26:11;5.55;;;5.07;;
33491;SDS011;20010;51.488;7.232;2024-02-23T11:28:49;5.80;;;5.40;;
33491;SDS011;20010;51.488;7.232;2024-02-23T11:31:19;5.50;;;5.00;;
33491;SDS011;20010;51.488;7.232;2024-02-23T11:33:53;6.07;;;4.80;;
33491;SDS011;20010;51.488;7.232;2024-02-23T11:36:28;5.38;;;4.97;;
33491;SDS011;20010;51.488;7.232;2024-02-23T11:38:57;6.10;;;5.45;;
33491;SDS011;20010;51.488;7.232;2024-02-23T11:41:26;6.13;;;5.70;;
33491;SDS011;20010;51.488;7.232;2024-02-23T11:43:54;5.75;;;5.35;;
33491;SDS011;20010;51.488;7.232;2024-02-23T11:46:22;6.97;;;6.38;;
33491;SDS011;20010;51.488;7.232;2024-02-23T11:48:49;6.40;;;5.93;;
33491;SDS011;20010;51.488;7.232;2024-02-23T11:51:20;6.32;;;5.70;;
33491;SDS011;20010;51.488;7.232;2024-02-23T11:53:49;5.35;;;5.00;;
33491;SDS011;20010;51.488;7.232;2024-02-23T11:56:16;8.07;;;5.93;;
33491;SDS011;20010;51.488;7.232;2024-02-23T11:58:45;5.60;;;5.20;;
33491;SDS011;20010;51.488;7.232;2024-02-23T12:01:12;5.60;;;5.30;;
33491;SDS011;20010;51.488;7.232;2024-02-23T12:03:40;5.50;;;5.05;;
33491;SDS011;20010;51.488;7.232;2024-02-23T12:06:09;6.55;;;5.20;;
33491;SDS011;20010;51.488;7.232;2024-02-23T12:08:36;5.63;;;5.03;;
33491;SDS011;20010;51.488;7.232;2024-02-23T12:11:08;5.18;;;4.82;;
33491;SDS011;20010;51.488;7.232;2024-02-23T12:13:36;5.70;;;5.30;;
33491;SDS011;20010;51.488;7.232;2024-02-23T12:16:04;5.50;;;5.10;;
33491;SDS011;20010;51.488;7.232;2024-02-23T12:18:35;5.47;;;5.05;;
33491;SDS011;20010;51.488;7.232;2024-02-23T12:21:05;8.77;;;5.25;;
33491;SDS011;20010;51.488;7.232;2024-02-23T12:23:42;5.20;;;4.80;;
33491;SDS011;20010;51.488;7.232;2024-02-23T12:26:15;5.25;;;4.80;;
33491;SDS011;20010;51.488;7.232;2024-02-23T12:28:43;5.18;;;4.60;;
33491;SDS011;20010;51.488;7.232;2024-02-23T12:31:10;4.97;;;4.68;;
33491;SDS011;20010;51.488;7.232;2024-02-23T12:33:38;4.53;;;4.22;;
33491;SDS011;20010;51.488;7.232;2024-02-23T12:38:37;6.20;;;4.93;;
33491;SDS011;20010;51.488;7.232;2024-02-23T12:41:06;6.20;;;4.47;;
33491;SDS011;20010;51.488;7.232;2024-02-23T12:43:32;6.78;;;5.03;;
33491;SDS011;20010;51.488;7.232;2024-02-23T12:45:59;4.82;;;4.47;;
33491;SDS011;20010;51.488;7.232;2024-02-23T12:48:28;4.72;;;4.40;;
33491;SDS011;20010;51.488;7.232;2024-02-23T12:50:57;5.03;;;4.53;;
33491;SDS011;20010;51.488;7.232;2024-02-23T12:56:01;5.82;;;5.38;;
33491;SDS011;20010;51.488;7.232;2024-02-23T12:58:38;5.50;;;5.10;;
33491;SDS011;20010;51.488;7.232;2024-02-23T13:03:36;7.05;;;5.43;;
33491;SDS011;20010;51.488;7.232;2024-02-23T13:06:04;5.55;;;4.97;;
33491;SDS011;20010;51.488;7.232;2024-02-23T13:08:32;7.10;;;5.38;;
33491;SDS011;20010;51.488;7.232;2024-02-23T13:10:59;5.40;;;4.95;;
33491;SDS011;20010;51.488;7.232;2024-02-23T13:13:26;6.22;;;5.63;;
33491;SDS011;20010;51.488;7.232;2024-02-23T13:15:54;6.10;;;5.70;;
33491;SDS011;20010;51.488;7.232;2024-02-23T13:18:23;5.72;;;5.22;;
33491;SDS011;20010;51.488;7.232;2024-02-23T13:20:52;5.55;;;5.13;;
33491;SDS011;20010;51.488;7.232;2024-02-23T13:23:19;6.22;;;5.10;;
33491;SDS011;20010;51.488;7.232;2024-02-23T13:25:46;6.05;;;5.50;;
33491;SDS011;20010;51.488;7.232;2024-02-23T13:28:12;8.52;;;5.97;;
33491;SDS011;20010;51.488;7.232;2024-02-23T13:30:39;6.75;;;6.00;;
33491;SDS011;20010;51.488;7.232;2024-02-23T13:33:07;8.20;;;5.68;;
33491;SDS011;20010;51.488;7.232;2024-02-23T13:35:37;5.90;;;5.45;;
33491;SDS011;20010;51.488;7.232;2024-02-23T13:38:06;5.72;;;5.30;;
33491;SDS011;20010;51.488;7.232;2024-02-23T13:40:33;6.57;;;5.50;;
33491;SDS011;20010;51.488;7.232;2024-02-23T13:43:00;12.50;;;10.52;;
33491;SDS011;20010;51.488;7.232;2024-02-23T13:45:27;7.07;;;6.47;;
33491;SDS011;20010;51.488;7.232;2024-02-23T13:48:01;5.60;;;5.13;;
33491;SDS011;20010;51.488;7.232;2024-02-23T13:50:29;6.03;;;5.35;;
33491;SDS011;20010;51.488;7.232;2024-02-23T13:52:57;6.30;;;5.03;;
33491;SDS011;20010;51.488;7.232;2024-02-23T13:55:24;5.47;;;5.10;;
33491;SDS011;20010;51.488;7.232;2024-02-23T13:57:51;9.35;;;5.82;;
33491;SDS011;20010;51.488;7.232;2024-02-23T14:00:18;9.02;;;5.63;;
33491;SDS011;20010;51.488;7.232;2024-02-23T14:02:46;6.65;;;5.45;;
33491;SDS011;20010;51.488;7.232;2024-02-23T14:05:14;5.95;;;5.55;;
33491;SDS011;20010;51.488;7.232;2024-02-23T14:07:42;6.32;;;5.40;;
33491;SDS011;20010;51.488;7.232;2024-02-23T14:10:10;6.82;;;5.50;;
33491;SDS011;20010;51.488;7.232;2024-02-23T14:12:38;5.80;;;5.30;;
33491;SDS011;20010;51.488;7.232;2024-02-23T14:15:05;5.50;;;5.10;;
33491;SDS011;20010;51.488;7.232;2024-02-23T14:17:32;9.25;;;6.40;;
33491;SDS011;20010;51.488;7.232;2024-02-23T14:20:01;5.95;;;5.30;;
33491;SDS011;20010;51.488;7.232;2024-02-23T14:22:30;7.30;;;5.65;;
33491;SDS011;20010;51.488;7.232;2024-02-23T14:24:58;8.77;;;4.70;;
33491;SDS011;20010;51.488;7.232;2024-02-23T14:27:25;7.20;;;6.50;;
33491;SDS011;20010;51.488;7.232;2024-02-23T14:29:58;7.07;;;6.32;;
33491;SDS011;20010;51.488;7.232;2024-02-23T14:32:25;7.22;;;5.57;;
33491;SDS011;20010;51.488;7.232;2024-02-23T14:34:55;5.43;;;4.90;;
33491;SDS011;20010;51.488;7.232;2024-02-23T14:37:24;5.53;;;5.13;;
33491;SDS011;20010;51.488;7.232;2024-02-23T14:39:50;8.77;;;5.32;;
33491;SDS011;20010;51.488;7.232;2024-02-23T14:42:19;5.05;;;4.65;;
33491;SDS011;20010;51.488;7.232;2024-02-23T14:44:47;5.20;;;4.70;;
33491;SDS011;20010;51.488;7.232;2024-02-23T14:47:14;5.88;;;5.43;;
33491;SDS011;20010;51.488;7.232;2024-02-23T14:49:41;6.30;;;5.57;;
33491;SDS011;20010;51.488;7.232;2024-02-23T14:52:08;6.53;;;5.88;;
33491;SDS011;20010;51.488;7.232;2024-02-23T14:54:34;7.32;;;5.10;;
33491;SDS011;20010;51.488;7.232;2024-02-23T14:57:03;6.07;;;5.68;;
33491;SDS011;20010;51.488;7.232;2024-02-23T14:59:30;6.35;;;5.72;;
33491;SDS011;20010;51.488;7.232;2024-02-23T15:01:58;6.65;;;5.50;;
33491;SDS011;20010;51.488;7.232;2024-02-23T15:04:26;5.97;;;5.47;;